Time;durP1;ratioP1;P1;durP2;ratioP2;P2;SDS_P1;SDS_P2;PMS_P1;PMS_P2;Temp;Humidity;BMP_temperature;BMP_pressure;BME280_temperature;BME280_humidity;BME280_pressure;Samples;Min_cycle;Max_cycle;Signal;HPM_P1;HPM_P2
2022/12/13 10:59:19;;;;;;;3.95;3.22;;;;;;;5.93;48.95;101004.55;1775844;80;21025;-58
2022/12/13 11:01:46;;;;;;;5.12;4.20;;;;;;;6.19;47.89;100995.08;1772764;80;21033;-57
2022/12/13 11:04:30;;;;;;;4.30;3.90;;;;;;;6.27;47.09;101001.11;1738613;81;21759;-57
2022/12/13 11:06:59;;;;;;;4.20;3.80;;;;;;;6.32;46.56;100998.10;1751353;80;21037;-57
2022/12/13 11:09:34;;;;;;;4.65;4.03;;;;;;;6.40;46.92;101000.25;1750648;81;21585;-57
2022/12/13 11:12:04;;;;;;;4.33;3.92;;;;;;;6.46;46.95;100997.23;1782067;79;21057;-57
2022/12/13 11:14:33;;;;;;;4.35;3.95;;;;;;;6.55;47.10;101002.37;1688190;83;21011;-57
2022/12/13 11:17:11;;;;;;;3.85;3.33;;;;;;;6.64;47.09;101003.21;1713904;81;21398;-57
2022/12/13 11:19:42;;;;;;;3.72;3.33;;;;;;;6.72;46.09;101006.22;1703917;83;21038;-57
2022/12/13 11:22:08;;;;;;;4.53;3.58;;;;;;;6.80;46.14;101001.05;1691331;84;20992;-57
2022/12/13 11:24:37;;;;;;;4.03;3.62;;;;;;;6.87;46.05;101004.03;1717848;82;21039;-57
2022/12/13 11:27:44;;;;;;;4.30;3.90;;;;;;;6.90;45.24;100996.28;1728969;82;21628;-57
2022/12/13 11:30:37;;;;;;;5.30;3.80;;;;;;;6.91;45.60;101003.16;1715942;83;21503;-57
2022/12/13 11:33:27;;;;;;;3.37;3.08;;;;;;;6.94;45.79;101013.09;1701460;83;21051;-57
2022/12/13 11:36:23;;;;;;;3.77;3.02;;;;;;;6.98;46.08;101022.98;1658653;85;21086;-57
2022/12/13 11:39:13;;;;;;;3.37;3.08;;;;;;;7.03;46.00;101025.10;1667784;84;21098;-57
2022/12/13 11:42:07;;;;;;;4.12;3.17;;;;;;;7.04;45.34;101028.13;1668085;85;21094;-57
2022/12/13 11:44:57;;;;;;;3.52;3.22;;;;;;;7.07;45.95;101025.52;1666296;85;21059;-57
2022/12/13 11:47:34;;;;;;;4.45;3.90;;;;;;;7.13;45.85;101033.30;1622597;87;21570;-58
2022/12/13 11:50:04;;;;;;;4.30;3.70;;;;;;;7.18;45.38;101013.41;1629248;87;21037;-58
2022/12/13 11:52:40;;;;;;;4.17;3.50;;;;;;;7.24;45.98;101024.61;1614363;87;21041;-57
2022/12/13 11:55:32;;;;;;;3.83;3.15;;;;;;;7.29;45.64;101027.19;1624470;87;21085;-57
2022/12/13 11:58:35;;;;;;;3.40;3.10;;;;;;;7.34;44.71;101030.60;1584659;89;21165;-57
2022/12/13 12:01:09;;;;;;;5.22;3.08;;;;;;;7.37;44.32;101039.66;1594781;88;21580;-57
2022/12/13 12:03:50;;;;;;;3.98;3.50;;;;;;;7.37;43.78;101038.37;1615165;87;21130;-57
2022/12/13 12:06:26;;;;;;;4.62;3.47;;;;;;;7.38;44.16;101046.55;1607883;87;21067;-57
2022/12/13 12:09:05;;;;;;;4.70;3.02;;;;;;;7.40;43.82;101055.16;1611231;87;21083;-57
2022/12/13 12:11:43;;;;;;;4.08;3.33;;;;;;;7.39;43.59;101052.16;1613440;87;21103;-57
2022/12/13 12:14:18;;;;;;;4.05;3.50;;;;;;;7.38;44.03;101053.89;1595773;88;21049;-57
2022/12/13 12:16:53;;;;;;;3.90;3.33;;;;;;;7.38;44.29;101053.89;1622522;87;21585;-57
2022/12/13 12:19:22;;;;;;;4.17;3.67;;;;;;;7.40;43.84;101056.46;1608568;88;21059;-57
2022/12/13 12:22:28;;;;;;;4.20;3.58;;;;;;;7.40;43.56;101056.46;1600665;88;21134;-58
2022/12/13 12:25:23;;;;;;;4.72;3.65;;;;;;;7.38;43.01;101055.18;1680167;83;21111;-57
2022/12/13 12:28:08;;;;;;;4.90;3.70;;;;;;;7.35;43.27;101066.86;1677538;83;21045;-57
2022/12/13 12:30:56;;;;;;;5.53;3.92;;;;;;;7.31;43.68;101065.58;1686570;82;21489;-57
2022/12/13 12:33:52;;;;;;;4.70;4.10;;;;;;;7.28;43.82;101054.79;1696835;83;21097;-57
2022/12/13 12:36:48;;;;;;;4.92;4.15;;;;;;;7.28;43.49;101055.22;1715191;83;21042;-57
2022/12/13 12:39:34;;;;;;;5.42;4.25;;;;;;;7.26;43.13;101063.42;1716409;83;21606;-57
2022/12/13 12:42:27;;;;;;;5.03;4.53;;;;;;;7.23;43.59;101066.04;1703270;83;21042;-59
2022/12/13 12:45:11;;;;;;;5.78;4.67;;;;;;;7.19;43.63;101069.05;1703676;83;21074;-56
2022/12/13 12:47:49;;;;;;;5.40;4.45;;;;;;;7.20;43.63;101068.62;1700642;83;21041;-58
2022/12/13 12:50:51;;;;;;;5.78;4.85;;;;;;;7.18;44.01;101072.52;1712794;83;21066;-58
2022/12/13 12:53:48;;;;;;;5.20;4.25;;;;;;;7.17;44.53;101077.70;1704659;83;21022;-57
2022/12/13 12:56:36;;;;;;;5.45;4.30;;;;;;;7.12;44.06;101077.71;1701477;83;21030;-57
2022/12/13 12:59:28;;;;;;;5.72;4.42;;;;;;;7.09;44.20;101102.28;1702149;83;21030;-57
2022/12/13 13:02:18;;;;;;;4.58;4.17;;;;;;;7.07;44.03;101091.08;1700043;83;21636;-57
2022/12/13 13:04:52;;;;;;;5.55;4.03;;;;;;;7.05;43.73;101096.69;1667416;85;21070;-57
2022/12/13 13:07:33;;;;;;;5.47;4.30;;;;;;;7.04;43.82;101103.17;1652976;86;21213;-57
2022/12/13 13:10:00;;;;;;;4.50;4.10;;;;;;;7.02;43.82;101106.19;1713909;83;21002;-58
2022/12/13 13:12:27;;;;;;;6.08;4.47;;;;;;;7.02;43.65;101107.48;1644675;82;21969;-58
2022/12/13 13:14:54;;;;;;;4.37;3.98;;;;;;;7.00;43.57;101111.80;1704918;80;21027;-58
2022/12/13 13:17:30;;;;;;;6.12;4.35;;;;;;;6.98;43.57;101120.00;1750436;80;21078;-59
2022/12/13 13:20:23;;;;;;;5.80;4.55;;;;;;;6.95;43.49;101113.09;1756817;80;21584;-57
2022/12/13 13:22:54;;;;;;;7.10;4.55;;;;;;;6.94;43.41;101118.28;1751079;80;21493;-58
2022/12/13 13:25:31;;;;;;;5.63;4.00;;;;;;;6.93;42.84;101116.54;1762912;80;21006;-58
2022/12/13 13:28:13;;;;;;;6.65;4.83;;;;;;;6.90;43.05;101113.55;1758481;80;21486;-58
2022/12/13 13:31:04;;;;;;;7.35;5.03;;;;;;;6.89;43.51;101116.98;1701471;83;21055;-57
2022/12/13 13:33:48;;;;;;;7.42;5.28;;;;;;;6.89;43.69;101114.82;1694635;83;21066;-57
2022/12/13 13:36:41;;;;;;;7.00;4.53;;;;;;;6.87;43.67;101113.54;1697312;83;21088;-58
2022/12/13 13:39:28;;;;;;;7.15;5.12;;;;;;;6.84;43.66;101115.27;1711729;83;21039;-57
2022/12/13 13:42:17;;;;;;;6.72;5.20;;;;;;;6.85;43.69;101130.78;1699054;83;21054;-57
2022/12/13 13:45:12;;;;;;;7.90;5.97;;;;;;;6.82;43.69;101126.89;1704461;83;21051;-58
2022/12/13 13:47:40;;;;;;;9.28;6.12;;;;;;;6.78;44.11;101135.97;1697738;82;21096;-57
2022/12/13 13:50:18;;;;;;;7.40;5.28;;;;;;;6.73;44.44;101142.86;1702424;83;21089;-58
2022/12/13 13:53:11;;;;;;;7.95;5.55;;;;;;;6.70;44.62;101149.34;1670239;85;21137;-58
2022/12/13 13:56:01;;;;;;;6.20;5.20;;;;;;;6.66;44.79;101143.73;1593285;89;21113;-57
2022/12/13 13:59:06;;;;;;;7.65;5.35;;;;;;;6.62;45.15;101149.73;1579306;89;21081;-57
2022/12/13 14:02:14;;;;;;;6.55;4.60;;;;;;;6.57;45.54;101142.84;1568164;89;21102;-57
2022/12/13 14:05:12;;;;;;;6.10;5.17;;;;;;;6.50;45.75;101143.72;1582140;89;21102;-57
2022/12/13 14:08:10;;;;;;;6.92;5.83;;;;;;;6.47;45.88;101147.57;1595263;89;21034;-57
2022/12/13 14:11:03;;;;;;;8.55;5.87;;;;;;;6.41;45.72;101152.73;1586261;89;21086;-57
2022/12/13 14:13:47;;;;;;;7.20;6.42;;;;;;;6.36;45.92;101158.34;1593306;89;21066;-57
2022/12/13 14:16:31;;;;;;;7.72;6.22;;;;;;;6.34;46.11;101161.36;1595147;89;21117;-57
2022/12/13 14:19:56;;;;;;;8.43;6.78;;;;;;;6.31;46.08;101165.22;1531711;91;21104;-57
2022/12/13 14:22:34;;;;;;;8.43;7.08;;;;;;;6.26;46.35;101174.70;1506754;94;21101;-58
2022/12/13 14:25:25;;;;;;;8.78;6.95;;;;;;;6.23;46.15;101179.84;1517380;93;21139;-57
2022/12/13 14:28:08;;;;;;;6.58;5.87;;;;;;;6.19;46.39;101176.82;1524782;92;21135;-57
2022/12/13 14:30:38;;;;;;;7.20;5.87;;;;;;;6.16;46.35;101183.25;1511511;92;21166;-57
2022/12/13 14:33:04;;;;;;;7.42;6.58;;;;;;;6.13;46.57;101185.84;1544636;90;21042;-57
2022/12/13 14:35:31;;;;;;;7.58;6.03;;;;;;;6.09;46.61;101185.83;1599547;88;21102;-58
2022/12/13 14:38:02;;;;;;;7.65;6.17;;;;;;;6.06;46.77;101198.30;1603796;88;21580;-57
2022/12/13 14:40:37;;;;;;;9.03;7.08;;;;;;;6.04;47.01;101201.30;1600614;88;21088;-57
2022/12/13 14:43:04;;;;;;;7.58;6.22;;;;;;;6.03;47.28;101207.34;1600809;88;21077;-57
2022/12/13 14:45:37;;;;;;;7.47;5.95;;;;;;;6.00;47.30;101203.45;1592003;88;21141;-57
2022/12/13 14:48:12;;;;;;;6.62;5.62;;;;;;;5.97;47.41;101211.20;1599255;88;21054;-57
2022/12/13 14:50:42;;;;;;;5.97;5.30;;;;;;;5.94;47.70;101209.87;1580963;90;21588;-57
2022/12/13 14:53:25;;;;;;;6.75;5.90;;;;;;;5.90;47.84;101214.59;1581010;89;21052;-57
2022/12/13 14:56:12;;;;;;;6.53;5.78;;;;;;;5.86;47.97;101214.15;1607824;85;21133;-57
2022/12/13 14:58:38;;;;;;;6.95;5.20;;;;;;;5.86;48.25;101223.61;1637268;87;21141;-57
2022/12/13 15:01:08;;;;;;;5.55;4.97;;;;;;;5.83;48.44;101224.87;1594746;89;21065;-57
2022/12/13 15:03:35;;;;;;;8.00;5.83;;;;;;;5.80;48.49;101221.84;1574547;90;21565;-57
2022/12/13 15:06:03;;;;;;;5.85;5.25;;;;;;;5.78;48.48;101223.55;1565590;90;21107;-57
2022/12/13 15:08:29;;;;;;;5.80;5.10;;;;;;;5.76;48.86;101233.01;1565599;90;21122;-57
2022/12/13 15:11:01;;;;;;;5.95;4.87;;;;;;;5.74;49.09;101238.17;1573738;90;21113;-57
2022/12/13 15:13:41;;;;;;;6.37;5.65;;;;;;;5.73;49.27;101244.59;1570948;91;21129;-57
2022/12/13 15:16:27;;;;;;;5.55;4.72;;;;;;;5.69;49.46;101242.84;1566920;90;21146;-57
2022/12/13 15:19:06;;;;;;;5.70;5.10;;;;;;;5.64;49.72;101251.02;1586109;89;21055;-57
2022/12/13 15:21:39;;;;;;;5.55;4.97;;;;;;;5.61;50.02;101248.39;1603901;88;21042;-58
2022/12/13 15:24:09;;;;;;;5.45;4.70;;;;;;;5.58;50.15;101258.72;1613305;86;21041;-57
2022/12/13 15:26:37;;;;;;;4.97;4.42;;;;;;;5.55;50.34;101261.27;1602942;88;21156;-58
2022/12/13 15:29:05;;;;;;;6.12;4.90;;;;;;;5.52;50.77;101259.97;1603892;87;21109;-58
2022/12/13 15:31:33;;;;;;;5.50;5.00;;;;;;;5.50;50.97;101260.39;1602759;88;21034;-58
2022/12/13 15:34:33;;;;;;;6.20;5.37;;;;;;;5.51;51.17;101261.69;1605522;88;21616;-57
2022/12/13 15:37:13;;;;;;;6.75;5.10;;;;;;;5.52;51.31;101263.39;1619281;87;21572;-57
2022/12/13 15:39:44;;;;;;;5.95;5.15;;;;;;;5.50;51.53;101265.55;1604438;87;21073;-58
2022/12/13 15:42:32;;;;;;;6.45;5.80;;;;;;;5.46;51.71;101279.30;1522591;93;21069;-57
2022/12/13 15:45:01;;;;;;;5.97;5.25;;;;;;;5.44;51.94;101287.45;1485813;95;21571;-58
2022/12/13 15:47:28;;;;;;;5.95;5.35;;;;;;;5.42;52.09;101300.77;1462547;97;21252;-57
2022/12/13 15:50:03;;;;;;;6.08;5.15;;;;;;;5.40;52.21;101292.16;1464972;97;21698;-57
2022/12/13 15:52:37;;;;;;;6.85;5.50;;;;;;;5.37;52.42;101307.59;1435169;98;21234;-57
2022/12/13 15:55:10;;;;;;;6.75;5.65;;;;;;;5.33;52.37;101303.27;1444071;97;21161;-58
2022/12/13 15:57:54;;;;;;;6.60;5.55;;;;;;;5.30;52.45;101309.67;1531720;92;21587;-58
2022/12/13 16:00:24;;;;;;;7.90;6.53;;;;;;;5.30;52.48;101311.84;1500882;93;21666;-57
2022/12/13 16:02:56;;;;;;;6.30;5.65;;;;;;;5.27;52.33;101332.47;1526030;92;21570;-57
2022/12/13 16:05:31;;;;;;;6.22;5.62;;;;;;;5.25;52.08;101330.72;1487951;95;21198;-57
2022/12/13 16:08:03;;;;;;;6.60;5.55;;;;;;;5.21;52.13;101339.28;1497801;94;21651;-57
2022/12/13 16:10:31;;;;;;;6.70;6.00;;;;;;;5.22;52.21;101343.58;1502998;93;21052;-57
2022/12/13 16:13:04;;;;;;;6.85;6.08;;;;;;;5.20;52.20;101342.28;1512695;94;21175;-57
2022/12/13 16:15:49;;;;;;;6.72;5.97;;;;;;;5.20;52.12;101342.70;1486667;96;21031;-57
2022/12/13 16:18:27;;;;;;;6.65;5.67;;;;;;;5.20;52.15;101353.89;1487342;96;21655;-57
2022/12/13 16:20:54;;;;;;;8.48;6.80;;;;;;;5.19;52.35;101356.47;1492481;94;21551;-58
2022/12/13 16:23:20;;;;;;;7.20;6.10;;;;;;;5.16;52.39;101348.68;1499404;94;21121;-58
2022/12/13 16:25:47;;;;;;;7.03;6.25;;;;;;;5.13;52.59;101356.41;1459283;97;21117;-57
2022/12/13 16:28:16;;;;;;;8.20;6.85;;;;;;;5.13;52.72;101360.27;1483929;95;21081;-58
2022/12/13 16:31:03;;;;;;;7.75;6.65;;;;;;;5.07;52.55;101357.64;1480920;96;21101;-57
2022/12/13 16:33:30;;;;;;;8.95;7.55;;;;;;;5.03;52.92;101362.33;1459727;98;21214;-57
2022/12/13 16:35:56;;;;;;;8.13;7.33;;;;;;;5.04;53.02;101369.20;1458538;98;21121;-57
2022/12/13 16:38:24;;;;;;;8.55;7.65;;;;;;;5.01;53.00;101373.89;1485815;95;21161;-57
2022/12/13 16:40:53;;;;;;;9.63;7.75;;;;;;;5.01;53.39;101375.63;1506707;93;21095;-57
2022/12/13 16:43:22;;;;;;;11.40;8.90;;;;;;;4.99;53.41;101374.75;1550381;90;21015;-57
2022/12/13 19:25:40;;;;;;;24.02;17.42;;;;;;;1.68;69.79;101569.45;1795247;79;27217;-57
2022/12/13 19:28:09;;;;;;;21.20;16.67;;;;;;;2.68;65.10;101569.02;1783403;79;21027;-56
2022/12/13 19:30:36;;;;;;;20.85;15.43;;;;;;;2.91;64.02;101568.69;1802597;79;21023;-57
2022/12/13 19:33:04;;;;;;;18.65;15.35;;;;;;;3.03;63.62;101570.23;1798809;79;21070;-58
2022/12/13 19:35:30;;;;;;;18.30;14.98;;;;;;;3.17;63.28;101573.96;1793720;79;21011;-56
2022/12/13 19:37:57;;;;;;;20.50;16.05;;;;;;;3.30;62.96;101578.53;1768571;80;21045;-57
2022/12/13 19:40:24;;;;;;;21.40;16.73;;;;;;;3.47;62.56;101578.00;1796713;79;21075;-58
2022/12/13 19:42:50;;;;;;;19.45;14.63;;;;;;;3.60;62.27;101582.56;1800107;79;21029;-57
2022/12/13 19:45:17;;;;;;;20.02;15.63;;;;;;;3.71;61.90;101581.08;1794329;79;21090;-57
2022/12/13 19:47:44;;;;;;;19.15;15.80;;;;;;;3.81;61.53;101579.13;1790461;79;20983;-57
2022/12/13 19:50:10;;;;;;;20.92;16.42;;;;;;;3.90;61.23;101580.56;1789960;79;21558;-57
2022/12/13 19:52:37;;;;;;;22.32;16.60;;;;;;;3.97;60.92;101581.13;1794258;79;20987;-56
2022/12/13 19:55:05;;;;;;;20.60;16.82;;;;;;;4.03;60.67;101583.81;1786489;79;21484;-57
2022/12/13 19:57:32;;;;;;;19.07;15.30;;;;;;;4.07;60.45;101580.04;1784872;79;21501;-57
2022/12/13 20:00:00;;;;;;;17.65;15.15;;;;;;;4.10;60.18;101592.11;1781088;78;21011;-57
2022/12/13 20:02:26;;;;;;;17.75;13.95;;;;;;;4.13;60.01;101594.72;1785598;79;21552;-57
2022/12/13 20:04:53;;;;;;;17.32;14.38;;;;;;;4.17;59.87;101593.94;1786279;79;21027;-57
2022/12/13 20:07:19;;;;;;;15.70;13.62;;;;;;;4.18;59.50;101603.83;1784173;79;21528;-57
2022/12/13 20:09:46;;;;;;;15.18;13.03;;;;;;;4.20;59.19;101599.16;1800545;79;21000;-57
2022/12/13 20:12:13;;;;;;;15.70;13.13;;;;;;;4.20;59.03;101606.88;1790018;79;21028;-57
2022/12/13 20:14:39;;;;;;;15.75;13.03;;;;;;;4.22;58.92;101603.03;1782022;79;21066;-57
2022/12/13 20:17:07;;;;;;;15.83;12.23;;;;;;;4.21;58.76;101608.60;1788174;79;21034;-57
2022/12/13 20:19:33;;;;;;;15.60;13.03;;;;;;;4.21;58.62;101610.30;1775941;79;21027;-57
2022/12/13 20:22:01;;;;;;;13.58;11.60;;;;;;;4.19;58.60;101619.30;1776222;80;21521;-57
2022/12/13 20:24:28;;;;;;;14.20;12.43;;;;;;;4.20;58.61;101622.34;1792563;79;21569;-57
2022/12/13 20:26:55;;;;;;;15.00;12.75;;;;;;;4.21;58.54;101627.92;1785884;79;21026;-57
2022/12/13 20:29:24;;;;;;;15.45;13.78;;;;;;;4.21;58.50;101629.20;1793039;79;21027;-57
2022/12/13 20:31:52;;;;;;;15.72;13.48;;;;;;;4.22;58.36;101632.25;1786645;79;21494;-56
2022/12/13 20:34:19;;;;;;;18.73;13.60;;;;;;;4.21;58.17;101629.20;1798306;79;21497;-57
2022/12/13 20:36:45;;;;;;;14.53;12.00;;;;;;;4.23;58.12;101636.95;1786616;79;21029;-57
2022/12/13 20:39:13;;;;;;;13.78;11.65;;;;;;;4.23;58.13;101640.82;1811578;79;21041;-57
2022/12/13 20:41:40;;;;;;;15.10;11.63;;;;;;;4.21;58.05;101634.36;1788695;79;21560;-57
2022/12/13 20:44:07;;;;;;;13.88;12.43;;;;;;;4.22;58.02;101638.69;1778568;79;21035;-57
2022/12/13 20:46:35;;;;;;;12.70;11.35;;;;;;;4.21;58.01;101636.94;1805418;79;20963;-56
2022/12/13 20:49:04;;;;;;;14.87;12.78;;;;;;;4.19;57.99;101639.91;1770805;79;21016;-57
2022/12/13 20:51:31;;;;;;;15.30;12.00;;;;;;;4.19;58.01;101638.62;1786474;79;20992;-57
2022/12/13 20:53:58;;;;;;;13.62;12.07;;;;;;;4.18;58.07;101639.48;1800045;79;21537;-57
2022/12/13 20:56:28;;;;;;;13.35;11.95;;;;;;;4.18;58.09;101647.20;1810731;79;20987;-56
2022/12/13 20:58:55;;;;;;;14.38;12.30;;;;;;;4.16;58.06;101651.45;1787720;79;22506;-57
2022/12/13 21:01:25;;;;;;;14.85;12.60;;;;;;;4.16;58.10;101646.30;1785377;79;21030;-57
2022/12/13 21:03:53;;;;;;;16.32;13.00;;;;;;;4.15;58.14;101649.70;1717976;82;21085;-57
2022/12/13 21:06:21;;;;;;;15.65;13.25;;;;;;;4.16;58.00;101661.77;1731834;82;21068;-57
2022/12/13 21:08:50;;;;;;;14.90;12.25;;;;;;;4.14;58.02;101651.41;1718814;82;21131;-57
2022/12/13 21:11:34;;;;;;;15.65;12.47;;;;;;;4.14;58.07;101655.72;1719760;82;21017;-57
2022/12/13 21:14:09;;;;;;;16.23;13.10;;;;;;;4.13;57.94;101656.54;1714967;83;21046;-57
2022/12/13 21:16:42;;;;;;;13.93;12.37;;;;;;;4.11;58.01;101656.93;1667339;84;21091;-57
2022/12/13 21:19:13;;;;;;;13.95;12.03;;;;;;;4.08;58.18;101657.73;1600740;87;21595;-57
2022/12/13 21:21:40;;;;;;;14.53;12.47;;;;;;;4.07;58.13;101657.30;1609077;87;21056;-57
2022/12/13 21:24:07;;;;;;;15.23;12.73;;;;;;;4.06;58.18;101654.67;1587076;87;22016;-57
2022/12/13 21:26:34;;;;;;;15.13;13.53;;;;;;;4.03;58.22;101662.36;1608643;87;21532;-57
2022/12/13 21:29:02;;;;;;;16.57;14.18;;;;;;;4.03;58.20;101672.66;1589059;87;21071;-57
2022/12/13 21:31:29;;;;;;;18.02;14.85;;;;;;;4.02;58.02;101674.36;1593086;87;21079;-57
2022/12/13 21:33:57;;;;;;;16.62;14.43;;;;;;;4.01;58.05;101679.48;1611066;87;21099;-56
2022/12/13 21:36:27;;;;;;;16.97;14.63;;;;;;;3.99;58.08;101682.05;1597384;87;21155;-57
2022/12/13 21:38:55;;;;;;;16.30;13.95;;;;;;;3.99;58.13;101675.61;1586444;87;21073;-58
2022/12/13 21:41:22;;;;;;;18.20;14.63;;;;;;;3.97;58.06;101678.98;1597689;87;21562;-57
2022/12/13 21:43:49;;;;;;;15.08;13.38;;;;;;;3.96;58.03;101684.54;1592705;87;21134;-57
2022/12/13 21:46:18;;;;;;;16.57;14.60;;;;;;;3.95;58.13;101692.25;1587902;87;21071;-56
2022/12/13 21:48:46;;;;;;;18.60;15.00;;;;;;;3.95;58.14;101690.95;1584955;87;21063;-57
2022/12/13 21:51:16;;;;;;;16.20;14.25;;;;;;;3.93;58.23;101696.09;1577231;87;21115;-57
2022/12/13 21:53:44;;;;;;;16.75;14.43;;;;;;;3.92;58.09;101700.77;1558395;90;21657;-57
2022/12/13 21:59:15;;;;;;;14.50;12.88;;;;;;;3.92;58.19;101693.45;1556493;90;21117;-56
2022/12/13 22:04:29;;;;;;;14.63;13.13;;;;;;;3.91;58.36;101691.33;1584893;89;21545;-57
2022/12/13 22:06:56;;;;;;;17.32;14.28;;;;;;;3.88;58.56;101692.95;1564190;91;21137;-58
2022/12/13 22:09:22;;;;;;;16.80;14.20;;;;;;;3.87;58.65;101693.39;1569913;90;21105;-57
2022/12/13 22:11:49;;;;;;;16.77;14.20;;;;;;;3.86;58.66;101689.47;1569145;90;21104;-57
2022/12/13 22:14:16;;;;;;;16.77;14.33;;;;;;;3.86;58.83;101694.63;1619300;86;21153;-57
2022/12/13 22:16:43;;;;;;;18.92;15.68;;;;;;;3.86;58.94;101701.06;1621587;86;21079;-57
2022/12/13 22:19:12;;;;;;;16.20;13.68;;;;;;;3.85;58.79;101703.20;1620870;86;21063;-56
2022/12/13 22:21:39;;;;;;;18.30;14.60;;;;;;;3.85;58.75;101708.35;1620089;87;21174;-56
2022/12/13 22:24:07;;;;;;;17.15;13.32;;;;;;;3.86;58.91;101715.22;1623002;86;21087;-57
2022/12/13 22:26:35;;;;;;;16.70;14.00;;;;;;;3.84;58.87;101714.32;1616306;87;21072;-57
2022/12/13 22:29:02;;;;;;;17.42;14.13;;;;;;;3.83;58.95;101726.31;1596110;86;21501;-56
2022/12/13 22:31:29;;;;;;;20.77;15.70;;;;;;;3.84;58.93;101727.19;1614413;87;21579;-56
2022/12/13 22:33:56;;;;;;;20.48;15.70;;;;;;;3.84;59.06;101725.91;1627722;87;21487;-57
2022/12/13 22:36:23;;;;;;;21.12;15.58;;;;;;;3.82;59.04;101722.02;1609780;87;21179;-57
2022/12/13 22:38:49;;;;;;;18.95;15.08;;;;;;;3.81;58.95;101724.57;1620235;87;21559;-57
2022/12/13 22:41:16;;;;;;;18.17;15.08;;;;;;;3.81;58.98;101740.02;1644851;81;21059;-57
2022/12/13 22:43:43;;;;;;;19.60;15.35;;;;;;;3.80;58.83;101736.56;1753536;80;21042;-56
2022/12/13 22:46:12;;;;;;;17.02;13.88;;;;;;;3.79;58.78;101737.83;1745986;80;21241;-57
2022/12/13 22:48:39;;;;;;;14.87;12.78;;;;;;;3.79;58.79;101737.39;1750894;81;21030;-57
2022/12/13 22:53:38;;;;;;;13.68;12.20;;;;;;;3.78;58.87;101738.65;1638246;86;21564;-56
2022/12/13 22:56:17;;;;;;;16.02;13.75;;;;;;;3.79;58.88;101745.11;1645516;86;21525;-57
2022/12/13 22:58:43;;;;;;;16.30;13.68;;;;;;;3.77;58.79;101746.78;1659025;86;21098;-57
2022/12/13 23:01:16;;;;;;;18.62;14.98;;;;;;;3.76;58.87;101748.05;1656660;86;21593;-57
2022/12/13 23:03:42;;;;;;;19.65;15.30;;;;;;;3.75;58.95;101755.33;1668610;85;21098;-57
2022/12/13 23:06:16;;;;;;;17.20;14.95;;;;;;;3.75;58.87;101752.76;1667500;85;21604;-57
2022/12/13 23:08:45;;;;;;;16.45;14.00;;;;;;;3.74;58.82;101761.30;1622736;86;21093;-57
2022/12/13 23:13:59;;;;;;;17.30;14.93;;;;;;;3.72;59.02;101760.40;1647946;86;21616;-57
2022/12/13 23:16:28;;;;;;;18.95;15.00;;;;;;;3.72;59.07;101775.84;1634312;86;21553;-56
2022/12/13 23:18:55;;;;;;;18.42;14.40;;;;;;;3.70;59.11;101778.39;1643846;85;21010;-57
2022/12/13 23:21:22;;;;;;;17.85;15.13;;;;;;;3.70;59.12;101782.66;1646566;85;21050;-56
2022/12/13 23:23:49;;;;;;;18.48;14.10;;;;;;;3.69;58.96;101775.80;1631380;86;21606;-57
